createdAt,value
2017-07-01T00:00:25.071Z,14.00
2017-07-01T00:02:53.449Z,14.00
2017-07-01T00:05:21.752Z,14.00
2017-07-01T00:07:50.455Z,13.90
2017-07-01T00:10:18.794Z,13.90
2017-07-01T00:12:47.495Z,13.90
2017-07-01T00:15:15.818Z,13.90
2017-07-01T00:17:44.274Z,13.90
2017-07-01T00:20:12.587Z,13.90
2017-07-01T00:22:41.667Z,14.00
2017-07-01T00:25:10.015Z,13.90
2017-07-01T00:27:38.771Z,14.00
2017-07-01T00:30:07.102Z,14.00
2017-07-01T00:32:35.418Z,14.00
2017-07-01T00:35:03.867Z,14.00
2017-07-01T00:37:32.180Z,14.00
2017-07-01T00:40:00.486Z,14.00
2017-07-01T00:42:28.877Z,14.10
2017-07-01T00:44:57.312Z,14.10
2017-07-01T00:47:25.656Z,14.10
2017-07-01T00:49:54.010Z,14.10
2017-07-01T00:52:22.700Z,14.10
2017-07-01T00:54:51.049Z,14.10
2017-07-01T00:57:20.127Z,14.10
2017-07-01T00:59:48.468Z,14.10
2017-07-01T01:02:16.746Z,14.10
2017-07-01T01:04:45.147Z,14.10
2017-07-01T01:07:13.467Z,14.00
2017-07-01T01:09:41.808Z,14.10
2017-07-01T01:12:10.181Z,14.10
2017-07-01T01:14:38.485Z,14.10
2017-07-01T01:17:06.832Z,14.10
2017-07-01T01:19:35.157Z,14.10
2017-07-01T01:22:03.482Z,14.10
2017-07-01T01:24:32.629Z,14.10
2017-07-01T01:27:00.981Z,14.10
2017-07-01T01:29:29.339Z,14.00
2017-07-01T01:31:57.641Z,14.00
2017-07-01T01:34:25.966Z,14.00
2017-07-01T01:36:54.315Z,14.00
2017-07-01T01:39:22.651Z,14.00
2017-07-01T01:41:50.982Z,14.10
2017-07-01T01:44:19.758Z,14.00
2017-07-01T01:46:48.103Z,14.10
2017-07-01T01:49:16.442Z,14.00
2017-07-01T01:51:45.191Z,14.10
2017-07-01T01:54:13.535Z,14.10
2017-07-01T01:56:41.953Z,14.10
2017-07-01T01:59:10.275Z,14.00
2017-07-01T02:01:38.613Z,14.00
2017-07-01T02:04:06.951Z,14.00
2017-07-01T02:06:35.310Z,14.10
2017-07-01T02:09:03.615Z,14.10
2017-07-01T02:11:31.950Z,14.10
2017-07-01T02:14:02.860Z,14.10
2017-07-01T02:16:33.137Z,14.10
2017-07-01T02:19:01.474Z,14.00
2017-07-01T02:24:44.967Z,14.10
2017-07-01T02:27:13.289Z,14.10
2017-07-01T02:29:41.641Z,14.10
2017-07-01T02:32:09.961Z,14.10
2017-07-01T02:34:38.314Z,14.10
2017-07-01T02:37:06.641Z,14.00
2017-07-01T02:39:34.981Z,14.10
2017-07-01T02:42:03.399Z,14.10
2017-07-01T02:44:31.720Z,14.10
2017-07-01T02:47:03.541Z,14.10
2017-07-01T02:49:39.733Z,14.10
2017-07-01T02:52:17.968Z,14.00
2017-07-01T02:54:52.829Z,14.10
2017-07-01T02:57:21.174Z,14.00
2017-07-01T02:59:50.244Z,14.10
2017-07-01T03:02:22.077Z,14.10
2017-07-01T03:04:50.406Z,14.00
2017-07-01T03:07:19.513Z,14.10
2017-07-01T03:09:47.815Z,14.00
2017-07-01T03:12:16.286Z,14.10
2017-07-01T03:14:44.587Z,14.10
2017-07-01T03:17:13.034Z,14.10
2017-07-01T03:19:41.366Z,14.10
2017-07-01T03:22:09.690Z,14.10
2017-07-01T03:24:42.492Z,14.10
2017-07-01T03:27:10.815Z,14.10
2017-07-01T03:29:39.159Z,14.10
2017-07-01T03:32:07.495Z,14.10
2017-07-01T03:34:35.836Z,14.10
2017-07-01T03:37:21.697Z,14.10
2017-07-01T03:40:01.772Z,14.10
2017-07-01T03:42:39.720Z,14.10
2017-07-01T03:45:33.629Z,14.10
2017-07-01T03:48:02.039Z,14.10
2017-07-01T03:50:30.409Z,14.10
2017-07-01T03:53:04.560Z,14.10
2017-07-01T03:55:32.898Z,14.10
2017-07-01T03:58:01.202Z,14.20
2017-07-01T04:00:30.473Z,14.20
2017-07-01T04:03:01.563Z,14.20
2017-07-01T04:05:29.892Z,14.20
2017-07-01T04:07:58.211Z,14.20
2017-07-01T04:10:27.414Z,14.20
2017-07-01T04:12:55.760Z,14.30
2017-07-01T04:15:24.060Z,14.30
2017-07-01T04:17:52.376Z,14.30
2017-07-01T04:20:28.697Z,14.30
2017-07-01T04:22:57.023Z,14.30
2017-07-01T04:25:25.343Z,14.40
2017-07-01T04:27:54.422Z,14.40
2017-07-01T04:30:23.519Z,14.40
2017-07-01T04:32:51.936Z,14.40
2017-07-01T04:35:20.289Z,14.40
2017-07-01T04:37:49.459Z,14.40
2017-07-01T04:40:19.642Z,14.40
2017-07-01T04:42:49.455Z,14.50
2017-07-01T04:45:28.568Z,14.40
2017-07-01T04:48:08.673Z,14.40
2017-07-01T04:50:45.706Z,14.50
2017-07-01T04:53:14.040Z,14.40
2017-07-01T04:55:43.214Z,14.50
2017-07-01T04:58:11.636Z,14.50
2017-07-01T05:01:00.555Z,14.50
2017-07-01T05:03:28.919Z,14.60
2017-07-01T05:05:59.134Z,14.50
2017-07-01T05:08:29.646Z,14.70
2017-07-01T05:10:59.725Z,14.60
2017-07-01T05:13:29.366Z,14.80
2017-07-01T05:15:58.491Z,14.70
2017-07-01T05:18:26.822Z,14.90
2017-07-01T05:20:56.695Z,14.90
2017-07-01T05:23:42.689Z,15.10
2017-07-01T05:26:11.003Z,15.10
2017-07-01T05:28:41.154Z,15.20
2017-07-01T05:31:32.239Z,15.20
2017-07-01T05:34:13.241Z,15.20
2017-07-01T05:36:44.309Z,15.10
2017-07-01T05:39:17.558Z,15.10
2017-07-01T05:41:57.752Z,15.00
2017-07-01T05:44:28.996Z,14.90
2017-07-01T05:46:57.298Z,14.90
2017-07-01T05:49:25.709Z,14.90
2017-07-01T05:51:54.003Z,14.80
2017-07-01T05:54:26.935Z,14.80
2017-07-01T05:56:56.031Z,14.70
2017-07-01T05:59:32.384Z,14.60
2017-07-01T06:02:01.502Z,14.60
2017-07-01T06:04:31.325Z,14.60
2017-07-01T06:06:59.662Z,14.70
2017-07-01T06:09:50.473Z,14.70
2017-07-01T06:12:31.355Z,14.70
2017-07-01T06:15:06.247Z,14.80
2017-07-01T06:17:49.511Z,14.80
2017-07-01T06:20:41.389Z,14.80
2017-07-01T06:23:13.285Z,14.70
2017-07-01T06:25:46.190Z,14.80
2017-07-01T06:28:36.173Z,14.80
2017-07-01T06:31:21.818Z,14.80
2017-07-01T06:33:50.189Z,14.90
2017-07-01T06:36:20.172Z,14.80
2017-07-01T06:38:49.379Z,14.80
2017-07-01T06:41:23.653Z,14.80
2017-07-01T06:44:19.692Z,14.80
2017-07-01T06:46:49.730Z,14.70
2017-07-01T06:49:18.087Z,14.70
2017-07-01T06:51:46.439Z,14.70
2017-07-01T06:54:17.278Z,14.80
2017-07-01T06:56:46.027Z,14.70
2017-07-01T06:59:14.415Z,14.80
2017-07-01T07:01:42.738Z,14.90
2017-07-01T07:04:11.053Z,15.00
2017-07-01T07:06:39.412Z,15.10
2017-07-01T07:09:07.716Z,15.10
2017-07-01T07:11:36.812Z,15.20
2017-07-01T07:14:05.586Z,15.20
2017-07-01T07:16:34.303Z,15.30
2017-07-01T07:19:02.605Z,15.30
2017-07-01T07:21:30.973Z,15.30
2017-07-01T07:24:00.078Z,15.40
2017-07-01T07:26:29.172Z,15.50
2017-07-01T07:28:57.521Z,15.60
2017-07-01T07:31:25.828Z,15.70
2017-07-01T07:33:54.138Z,15.90
2017-07-01T07:36:22.467Z,15.90
2017-07-01T07:38:51.550Z,15.90
2017-07-01T07:41:19.865Z,15.80
2017-07-01T07:43:48.218Z,15.80
2017-07-01T07:46:17.288Z,15.70
2017-07-01T07:48:45.623Z,15.60
2017-07-01T07:51:13.956Z,15.80
2017-07-01T07:53:43.024Z,15.90
2017-07-01T07:56:11.353Z,15.80
2017-07-01T07:58:39.663Z,15.90
2017-07-01T08:01:07.963Z,15.80
2017-07-01T08:03:36.286Z,15.70
2017-07-01T08:06:04.594Z,15.70
2017-07-01T08:08:32.971Z,15.70
2017-07-01T08:11:01.376Z,15.70
2017-07-01T08:13:29.712Z,15.70
2017-07-01T08:15:58.030Z,15.80
2017-07-01T08:18:27.139Z,15.70
2017-07-01T08:20:56.206Z,15.80
2017-07-01T08:23:24.536Z,15.80
2017-07-01T08:25:52.857Z,15.80
2017-07-01T08:28:21.158Z,15.90
2017-07-01T08:30:50.309Z,16.10
2017-07-01T08:33:18.620Z,16.30
2017-07-01T08:35:46.952Z,16.60
2017-07-01T08:38:15.285Z,16.70
2017-07-01T08:40:43.614Z,16.60
2017-07-01T08:43:11.961Z,16.60
2017-07-01T08:45:40.275Z,16.40
2017-07-01T08:48:08.587Z,16.40
2017-07-01T08:50:36.928Z,16.30
2017-07-01T08:53:05.224Z,16.30
2017-07-01T08:55:33.560Z,16.30
2017-07-01T08:58:02.299Z,16.10
2017-07-01T09:00:30.623Z,16.10
2017-07-01T09:02:58.970Z,16.10
2017-07-01T09:05:27.277Z,16.10
2017-07-01T09:07:55.592Z,16.10
2017-07-01T09:10:24.747Z,16.10
2017-07-01T09:12:53.052Z,16.10
2017-07-01T09:15:21.361Z,16.10
2017-07-01T09:17:50.416Z,16.30
2017-07-01T09:20:18.762Z,16.30
2017-07-01T09:22:47.049Z,16.30
2017-07-01T09:25:15.420Z,16.40
2017-07-01T09:27:43.736Z,16.50
2017-07-01T09:30:12.091Z,16.60
2017-07-01T09:32:40.512Z,16.40
2017-07-01T09:35:08.840Z,16.40
2017-07-01T09:37:37.193Z,16.30
2017-07-01T09:40:05.498Z,16.20
2017-07-01T09:42:33.843Z,16.10
2017-07-01T09:45:02.179Z,16.10
2017-07-01T09:47:30.491Z,16.10
2017-07-01T09:49:58.811Z,15.90
2017-07-01T09:52:27.128Z,15.90
2017-07-01T09:54:56.258Z,16.00
2017-07-01T09:57:24.583Z,16.00
2017-07-01T09:59:53.013Z,16.00
2017-07-01T10:02:21.423Z,16.00
2017-07-01T10:04:49.851Z,16.00
2017-07-01T10:07:18.574Z,16.10
2017-07-01T10:09:47.002Z,16.10
2017-07-01T10:12:15.347Z,16.20
2017-07-01T10:14:43.834Z,16.30
2017-07-01T10:17:12.164Z,16.20
2017-07-01T10:19:40.472Z,16.30
2017-07-01T10:22:08.869Z,16.10
2017-07-01T10:24:37.311Z,16.00
2017-07-01T10:27:05.625Z,16.00
2017-07-01T10:29:33.997Z,16.00
2017-07-01T10:32:02.286Z,16.00
2017-07-01T10:34:30.628Z,16.10
2017-07-01T10:36:58.998Z,16.20
2017-07-01T10:39:27.319Z,16.30
2017-07-01T10:41:55.688Z,16.30
2017-07-01T10:44:24.776Z,16.30
2017-07-01T10:46:53.107Z,16.30
2017-07-01T10:49:21.430Z,16.30
2017-07-01T10:51:49.793Z,16.30
2017-07-01T10:54:18.114Z,16.30
2017-07-01T10:56:47.225Z,16.30
2017-07-01T10:59:16.411Z,16.10
2017-07-01T11:01:44.723Z,16.10
2017-07-01T11:04:13.112Z,16.10
2017-07-01T11:06:41.419Z,16.00
2017-07-01T11:09:09.734Z,16.00
2017-07-01T11:11:38.078Z,16.00
2017-07-01T11:14:06.386Z,16.10
2017-07-01T11:16:34.732Z,16.30
2017-07-01T11:19:03.468Z,16.40
2017-07-01T11:21:31.850Z,16.60
2017-07-01T11:24:00.576Z,16.60
2017-07-01T11:26:28.873Z,16.50
2017-07-01T11:28:58.009Z,16.20
2017-07-01T11:31:26.363Z,16.20
2017-07-01T11:33:54.728Z,16.00
2017-07-01T11:36:23.831Z,16.00
2017-07-01T11:38:52.936Z,16.00
2017-07-01T11:41:21.253Z,16.00
2017-07-01T11:43:49.580Z,16.10
2017-07-01T11:46:18.671Z,16.00
2017-07-01T11:48:46.980Z,15.90
2017-07-01T11:51:15.788Z,15.90
2017-07-01T11:53:44.120Z,16.00
2017-07-01T11:56:13.216Z,16.10
2017-07-01T11:58:41.519Z,16.10
2017-07-01T12:01:09.885Z,16.30
2017-07-01T12:03:38.172Z,16.50
2017-07-01T12:06:06.889Z,16.50
2017-07-01T12:08:35.294Z,16.50
2017-07-01T12:11:03.625Z,16.50
2017-07-01T12:13:31.942Z,16.50
2017-07-01T12:16:00.302Z,16.30
2017-07-01T12:18:29.092Z,16.30
2017-07-01T12:20:57.588Z,16.20
2017-07-01T12:23:26.872Z,16.30
2017-07-01T12:25:55.203Z,16.30
2017-07-01T12:28:23.590Z,16.70
2017-07-01T12:30:52.941Z,16.70
2017-07-01T12:33:22.007Z,16.80
2017-07-01T12:35:50.398Z,16.70
2017-07-01T12:38:18.729Z,16.80
2017-07-01T12:40:47.086Z,16.90
2017-07-01T12:43:16.161Z,16.90
2017-07-01T12:45:45.284Z,16.90
2017-07-01T12:48:13.617Z,16.80
2017-07-01T12:50:42.394Z,16.80
2017-07-01T12:53:10.761Z,16.70
2017-07-01T12:55:39.074Z,16.60
2017-07-01T12:58:08.250Z,16.60
2017-07-01T13:00:36.628Z,16.60
2017-07-01T13:03:06.535Z,16.90
2017-07-01T13:05:34.923Z,17.50
2017-07-01T13:08:03.220Z,17.90
2017-07-01T13:10:32.336Z,18.10
2017-07-01T13:13:00.646Z,18.20
2017-07-01T13:15:28.940Z,18.20
2017-07-01T13:17:57.998Z,18.50
2017-07-01T13:20:27.031Z,18.50
2017-07-01T13:22:55.377Z,19.00
2017-07-01T13:25:23.715Z,19.00
2017-07-01T13:27:52.780Z,19.20
2017-07-01T13:30:21.111Z,19.10
2017-07-01T13:32:49.421Z,19.00
2017-07-01T13:35:17.747Z,19.00
2017-07-01T13:37:46.061Z,19.10
2017-07-01T13:40:14.389Z,19.40
2017-07-01T13:42:42.721Z,19.50
2017-07-01T13:45:11.064Z,19.90
2017-07-01T13:47:39.383Z,20.90
2017-07-01T13:50:07.686Z,21.40
2017-07-01T13:52:37.066Z,21.40
2017-07-01T13:55:06.226Z,21.60
2017-07-01T13:57:34.553Z,22.10
2017-07-01T14:00:03.652Z,22.20
2017-07-01T14:02:32.732Z,22.30
2017-07-01T14:05:01.068Z,22.00
2017-07-01T14:07:29.398Z,21.90
2017-07-01T14:09:57.729Z,21.10
2017-07-01T14:12:26.039Z,23.10
2017-07-01T14:14:54.406Z,22.40
2017-07-01T14:17:22.988Z,21.40
2017-07-01T14:19:51.277Z,21.40
2017-07-01T14:22:20.383Z,20.80
2017-07-01T14:24:49.464Z,20.70
2017-07-01T14:27:17.815Z,21.10
2017-07-01T14:29:46.120Z,21.60
2017-07-01T14:32:14.420Z,22.20
2017-07-01T14:34:43.508Z,23.60
2017-07-01T14:37:12.621Z,23.20
2017-07-01T14:39:40.962Z,23.20
2017-07-01T14:42:09.267Z,23.30
2017-07-01T14:44:37.596Z,21.70
2017-07-01T14:47:05.910Z,21.70
2017-07-01T14:49:34.990Z,21.50
2017-07-01T14:52:03.355Z,21.20
2017-07-01T14:54:31.673Z,21.00
2017-07-01T14:57:00.761Z,20.70
2017-07-01T14:59:29.108Z,20.80
2017-07-01T15:01:57.450Z,20.90
2017-07-01T15:04:25.797Z,21.00
2017-07-01T15:06:54.111Z,20.60
2017-07-01T15:09:22.464Z,20.70
2017-07-01T15:11:50.798Z,20.70
2017-07-01T15:14:20.620Z,20.70
2017-07-01T15:16:49.727Z,20.80
2017-07-01T15:19:18.802Z,20.90
2017-07-01T15:21:47.157Z,21.00
2017-07-01T15:24:15.465Z,21.10
2017-07-01T15:26:44.569Z,21.10
2017-07-01T15:29:13.680Z,21.10
2017-07-01T15:31:42.739Z,21.00
2017-07-01T15:34:11.845Z,20.90
2017-07-01T15:36:40.938Z,21.00
2017-07-01T15:39:10.038Z,21.10
2017-07-01T15:41:38.342Z,21.10
2017-07-01T15:44:07.813Z,21.00
2017-07-01T15:46:36.507Z,21.10
2017-07-01T15:49:04.833Z,21.00
2017-07-01T15:51:33.166Z,21.00
2017-07-01T15:54:01.464Z,21.00
2017-07-01T15:56:30.543Z,21.00
2017-07-01T15:58:59.177Z,20.90
2017-07-01T16:01:39.292Z,21.00
2017-07-01T16:04:07.614Z,20.90
2017-07-01T16:06:35.976Z,20.90
2017-07-01T16:09:04.736Z,20.90
2017-07-01T16:11:33.040Z,21.00
2017-07-01T16:14:01.338Z,20.90
2017-07-01T16:16:30.063Z,21.00
2017-07-01T16:18:58.755Z,21.00
2017-07-01T16:21:27.098Z,21.10
2017-07-01T16:23:56.200Z,21.10
2017-07-01T16:26:25.257Z,21.10
2017-07-01T16:28:53.688Z,21.10
2017-07-01T16:31:22.033Z,20.90
2017-07-01T16:33:50.762Z,20.80
2017-07-01T16:36:19.468Z,20.80
2017-07-01T16:38:47.863Z,20.80
2017-07-01T16:41:16.162Z,20.80
2017-07-01T16:43:44.483Z,20.90
2017-07-01T16:46:12.783Z,21.00
2017-07-01T16:48:41.126Z,20.90
2017-07-01T16:51:09.477Z,21.00
2017-07-01T16:53:38.653Z,20.80
2017-07-01T16:56:08.059Z,20.80
2017-07-01T16:58:36.362Z,20.80
2017-07-01T17:01:04.701Z,20.90
2017-07-01T17:03:33.708Z,21.00
2017-07-01T17:06:02.041Z,21.00
2017-07-01T17:08:30.347Z,21.10
2017-07-01T17:10:58.972Z,21.30
2017-07-01T17:13:27.294Z,21.50
2017-07-01T17:15:55.595Z,21.50
2017-07-01T17:18:23.916Z,21.30
2017-07-01T17:20:52.225Z,21.10
2017-07-01T17:23:20.574Z,20.90
2017-07-01T17:25:48.880Z,20.80
2017-07-01T17:28:17.227Z,20.80
2017-07-01T17:30:45.526Z,20.90
2017-07-01T17:33:13.840Z,21.00
2017-07-01T17:35:43.016Z,20.90
2017-07-01T17:38:11.327Z,20.70
2017-07-01T17:40:40.428Z,20.60
2017-07-01T17:43:08.740Z,20.50
2017-07-01T17:45:37.067Z,20.30
2017-07-01T17:48:06.189Z,20.30
2017-07-01T17:50:34.536Z,20.20
2017-07-01T17:53:03.619Z,20.10
2017-07-01T17:55:32.000Z,20.20
2017-07-01T17:58:00.736Z,19.90
2017-07-01T18:00:29.044Z,20.00
2017-07-01T18:02:57.433Z,20.00
2017-07-01T18:05:25.747Z,19.80
2017-07-01T18:07:54.469Z,19.50
2017-07-01T18:10:22.864Z,19.60
2017-07-01T18:12:51.163Z,19.50
2017-07-01T18:15:20.335Z,19.50
2017-07-01T18:17:48.636Z,19.40
2017-07-01T18:20:17.404Z,19.40
2017-07-01T18:22:45.744Z,19.20
2017-07-01T18:25:14.474Z,19.20
2017-07-01T18:27:42.813Z,19.00
2017-07-01T18:30:11.158Z,19.00
2017-07-01T18:32:39.493Z,18.50
2017-07-01T18:35:07.840Z,18.30
2017-07-01T18:37:36.565Z,18.20
2017-07-01T18:40:04.908Z,18.10
2017-07-01T18:42:33.320Z,17.90
2017-07-01T18:45:01.677Z,17.90
2017-07-01T18:47:30.004Z,17.70
2017-07-01T18:49:58.311Z,17.70
2017-07-01T18:52:26.680Z,17.60
2017-07-01T18:54:54.980Z,17.40
2017-07-01T18:57:23.305Z,17.40
2017-07-01T18:59:51.637Z,17.50
2017-07-01T19:02:19.944Z,17.30
2017-07-01T19:04:49.042Z,17.30
2017-07-01T19:07:17.377Z,17.20
2017-07-01T19:09:45.725Z,17.10
2017-07-01T19:12:14.036Z,16.90
2017-07-01T19:14:42.372Z,17.00
2017-07-01T19:17:10.715Z,16.80
2017-07-01T19:19:39.184Z,16.80
2017-07-01T19:22:07.502Z,16.80
2017-07-01T19:24:35.849Z,16.70
2017-07-01T19:27:04.186Z,16.70
2017-07-01T19:29:32.538Z,16.40
2017-07-01T19:32:01.251Z,16.40
2017-07-01T19:34:29.965Z,16.40
2017-07-01T19:36:58.315Z,16.30
2017-07-01T19:39:26.637Z,16.30
2017-07-01T19:41:55.773Z,16.20
2017-07-01T19:44:24.470Z,16.10
2017-07-01T19:46:52.783Z,16.00
2017-07-01T19:49:21.179Z,15.90
2017-07-01T19:51:49.582Z,15.80
2017-07-01T19:54:18.344Z,15.80
2017-07-01T19:56:46.664Z,15.70
2017-07-01T19:59:15.070Z,15.70
2017-07-01T20:01:43.393Z,15.70
2017-07-01T20:04:11.769Z,15.70
2017-07-01T20:06:41.612Z,15.60
2017-07-01T20:09:10.046Z,15.70
2017-07-01T20:11:38.414Z,15.50
2017-07-01T20:14:06.762Z,15.50
2017-07-01T20:16:35.619Z,15.40
2017-07-01T20:19:03.935Z,15.40
2017-07-01T20:21:32.259Z,15.40
2017-07-01T20:24:00.591Z,15.30
2017-07-01T20:26:29.300Z,15.30
2017-07-01T20:28:57.633Z,15.20
2017-07-01T20:31:25.948Z,15.30
2017-07-01T20:33:54.538Z,15.20
2017-07-01T20:36:23.657Z,15.10
2017-07-01T20:38:51.998Z,15.10
2017-07-01T20:41:20.304Z,15.10
2017-07-01T20:43:48.647Z,15.10
2017-07-01T20:46:16.980Z,15.00
2017-07-01T20:48:45.787Z,15.00
2017-07-01T20:51:14.147Z,15.00
2017-07-01T20:53:43.000Z,14.90
2017-07-01T20:56:12.118Z,14.90
2017-07-01T20:58:40.441Z,14.80
2017-07-01T21:01:08.777Z,14.90
2017-07-01T21:03:37.156Z,14.80
2017-07-01T21:06:05.889Z,14.80
2017-07-01T21:08:34.194Z,14.70
2017-07-01T21:11:02.633Z,14.70
2017-07-01T21:13:30.950Z,14.70
2017-07-01T21:15:59.299Z,14.70
2017-07-01T21:18:27.689Z,14.70
2017-07-01T21:20:56.154Z,14.60
2017-07-01T21:23:24.458Z,14.60
2017-07-01T21:25:52.770Z,14.60
2017-07-01T21:28:21.143Z,14.50
2017-07-01T21:30:49.522Z,14.50
2017-07-01T21:33:18.220Z,14.50
2017-07-01T21:35:46.947Z,14.50
2017-07-01T21:38:16.048Z,14.40
2017-07-01T21:40:45.160Z,14.40
2017-07-01T21:43:13.506Z,14.50
2017-07-01T21:45:41.830Z,14.60
2017-07-01T21:48:10.560Z,14.60
2017-07-01T21:50:39.688Z,14.70
2017-07-01T21:53:08.061Z,14.70
2017-07-01T21:55:36.377Z,14.70
2017-07-01T21:58:04.679Z,14.70
2017-07-01T22:00:33.031Z,14.60
2017-07-01T22:03:01.742Z,14.60
2017-07-01T22:05:30.103Z,14.60
2017-07-01T22:07:58.431Z,14.50
2017-07-01T22:10:27.535Z,14.50
2017-07-01T22:12:56.638Z,14.40
2017-07-01T22:15:24.966Z,14.30
2017-07-01T22:17:53.358Z,14.40
2017-07-01T22:20:21.702Z,14.40
2017-07-01T22:22:50.049Z,14.20
2017-07-01T22:25:18.367Z,14.30
2017-07-01T22:27:46.719Z,14.30
2017-07-01T22:30:15.416Z,14.30
2017-07-01T22:32:43.913Z,14.30
2017-07-01T22:35:12.232Z,14.40
2017-07-01T22:37:40.944Z,14.40
2017-07-01T22:40:09.310Z,14.40
2017-07-01T22:42:38.027Z,14.30
2017-07-01T22:45:06.375Z,14.30
2017-07-01T22:47:34.702Z,14.30
2017-07-01T22:50:03.001Z,14.20
2017-07-01T22:52:32.287Z,14.20
2017-07-01T22:55:01.368Z,14.30
2017-07-01T22:57:29.675Z,14.30
2017-07-01T22:59:58.068Z,14.30
2017-07-01T23:02:26.772Z,14.30
2017-07-01T23:04:55.535Z,14.20
2017-07-01T23:07:23.840Z,14.20
2017-07-01T23:09:52.162Z,14.10
2017-07-01T23:12:20.510Z,14.10
2017-07-01T23:14:48.845Z,14.20
2017-07-01T23:17:17.164Z,14.20
2017-07-01T23:19:45.905Z,14.20
2017-07-01T23:22:14.603Z,14.20
2017-07-01T23:24:43.435Z,14.20
2017-07-01T23:27:11.730Z,14.20
2017-07-01T23:29:40.435Z,14.10
2017-07-01T23:32:08.778Z,14.10
2017-07-01T23:34:37.488Z,14.10
2017-07-01T23:37:06.201Z,14.00
2017-07-01T23:39:34.516Z,13.90
2017-07-01T23:42:02.856Z,13.90
2017-07-01T23:44:31.350Z,13.90
2017-07-01T23:47:00.063Z,14.00
2017-07-01T23:49:28.397Z,14.10
2017-07-01T23:51:56.718Z,14.00
2017-07-01T23:54:25.445Z,13.90
2017-07-01T23:56:54.148Z,13.90
2017-07-01T23:59:22.495Z,13.80
